createdAt,value
2022-09-07T00:02:01.783Z,100464.13
2022-09-07T00:04:28.434Z,100468.13
2022-09-07T00:06:55.107Z,100457.44
2022-09-07T00:09:21.753Z,100455.75
2022-09-07T00:11:48.329Z,100459.72
2022-09-07T00:14:14.907Z,100464.59
2022-09-07T00:16:41.726Z,100471.97
2022-09-07T00:19:08.349Z,100462.78
2022-09-07T00:21:35.533Z,100459.31
2022-09-07T00:24:02.288Z,100461.66
2022-09-07T00:26:30.905Z,100460.63
2022-09-07T00:29:00.129Z,100457.84
2022-09-07T00:31:28.047Z,100459.56
2022-09-07T00:33:58.291Z,100461.44
2022-09-07T00:36:25.333Z,100456.16
2022-09-07T00:38:52.061Z,100457.38
2022-09-07T00:41:20.466Z,100459.94
2022-09-07T00:43:50.316Z,100454.94
2022-09-07T00:46:23.641Z,100460.63
2022-09-07T00:49:16.599Z,100446.00
2022-09-07T00:51:52.346Z,100438.25
2022-09-07T00:54:25.425Z,100438.19
2022-09-07T00:56:53.601Z,100432.13
2022-09-07T00:59:25.131Z,100435.75
2022-09-07T01:01:52.146Z,100422.84
2022-09-07T01:04:20.006Z,100417.31
2022-09-07T01:06:46.670Z,100409.63
2022-09-07T01:09:16.924Z,100408.84
2022-09-07T01:11:50.597Z,100405.47
2022-09-07T01:14:21.114Z,100415.25
2022-09-07T01:17:28.637Z,100427.03
2022-09-07T01:20:38.864Z,100424.13
2022-09-07T01:23:32.548Z,100418.09
2022-09-07T01:26:29.563Z,100415.44
2022-09-07T01:29:35.500Z,100414.78
2022-09-07T01:32:25.317Z,100413.53
2022-09-07T01:34:53.759Z,100420.75
2022-09-07T01:37:44.658Z,100420.69
2022-09-07T01:40:24.323Z,100427.41
2022-09-07T01:43:22.423Z,100428.81
2022-09-07T01:45:52.634Z,100430.16
2022-09-07T01:48:21.554Z,100422.44
2022-09-07T01:51:02.494Z,100427.75
2022-09-07T01:53:48.171Z,100426.41
2022-09-07T01:56:21.523Z,100422.63
2022-09-07T01:58:57.048Z,100418.44
2022-09-07T02:01:33.321Z,100412.41
2022-09-07T02:04:19.632Z,100415.88
2022-09-07T02:06:50.766Z,100416.78
2022-09-07T02:09:21.442Z,100405.75
2022-09-07T02:11:50.147Z,100409.84
2022-09-07T02:14:24.950Z,100412.06
2022-09-07T02:17:10.760Z,100407.16
2022-09-07T02:19:43.009Z,100407.38
2022-09-07T02:22:14.400Z,100391.09
2022-09-07T02:24:45.904Z,100390.28
2022-09-07T02:27:21.921Z,100392.19
2022-09-07T02:29:48.671Z,100386.50
2022-09-07T02:32:15.422Z,100387.53
2022-09-07T02:34:42.024Z,100389.91
2022-09-07T02:37:09.716Z,100391.66
2022-09-07T02:39:36.807Z,100388.63
2022-09-07T02:42:03.680Z,100381.13
2022-09-07T02:44:35.463Z,100382.53
2022-09-07T02:47:14.644Z,100380.16
2022-09-07T02:50:18.828Z,100377.41
2022-09-07T02:52:59.031Z,100370.41
2022-09-07T02:55:56.042Z,100360.47
2022-09-07T02:58:44.362Z,100362.94
2022-09-07T03:01:35.329Z,100354.31
2022-09-07T03:04:31.421Z,100355.19
2022-09-07T03:07:29.405Z,100347.06
2022-09-07T03:09:58.181Z,100352.78
2022-09-07T03:12:24.782Z,100347.78
2022-09-07T03:14:51.330Z,100339.00
2022-09-07T03:17:17.952Z,100336.50
2022-09-07T03:19:44.568Z,100340.59
2022-09-07T03:22:11.688Z,100344.03
2022-09-07T03:24:38.238Z,100347.50
2022-09-07T03:27:04.977Z,100350.03
2022-09-07T03:29:31.590Z,100378.81
2022-09-07T03:31:58.528Z,100391.22
2022-09-07T03:34:25.207Z,100407.31
2022-09-07T03:36:51.791Z,100420.03
2022-09-07T03:39:20.894Z,100427.22
2022-09-07T03:41:47.805Z,100423.53
2022-09-07T03:44:14.374Z,100401.44
2022-09-07T03:46:41.011Z,100399.66
2022-09-07T03:49:07.583Z,100390.88
2022-09-07T03:51:34.107Z,100402.25
2022-09-07T03:54:00.717Z,100421.91
2022-09-07T03:56:27.739Z,100434.81
2022-09-07T03:58:54.733Z,100433.44
2022-09-07T04:01:26.535Z,100438.84
2022-09-07T04:03:53.863Z,100450.00
2022-09-07T04:06:21.255Z,100458.56
2022-09-07T04:08:47.945Z,100450.88
2022-09-07T04:11:17.762Z,100438.19
2022-09-07T04:13:46.511Z,100432.22
2022-09-07T04:16:17.793Z,100426.59
2022-09-07T04:18:44.842Z,100427.66
2022-09-07T04:21:11.838Z,100418.56
2022-09-07T04:23:41.499Z,100417.28
2022-09-07T04:26:14.884Z,100425.78
2022-09-07T04:28:42.090Z,100429.00
2022-09-07T04:31:08.743Z,100434.91
2022-09-07T04:33:35.481Z,100421.59
2022-09-07T04:36:02.830Z,100421.63
2022-09-07T04:38:30.408Z,100409.47
2022-09-07T04:41:08.164Z,100403.72
2022-09-07T04:43:35.981Z,100393.88
2022-09-07T04:46:07.299Z,100382.75
2022-09-07T04:48:34.460Z,100380.72
2022-09-07T04:51:06.244Z,100388.75
2022-09-07T04:53:33.899Z,100397.31
2022-09-07T04:56:00.692Z,100401.72
2022-09-07T04:58:27.315Z,100405.72
2022-09-07T05:00:54.033Z,100410.56
2022-09-07T05:03:21.019Z,100410.34
2022-09-07T05:05:47.616Z,100423.50
2022-09-07T05:08:14.224Z,100427.44
2022-09-07T05:10:51.276Z,100437.56
2022-09-07T05:13:17.921Z,100444.78
2022-09-07T05:15:44.486Z,100449.66
2022-09-07T05:18:11.732Z,100444.47
2022-09-07T05:20:38.315Z,100449.16
2022-09-07T05:23:04.876Z,100445.38
2022-09-07T05:25:32.694Z,100439.38
2022-09-07T05:27:59.315Z,100443.81
2022-09-07T05:33:13.055Z,100436.97
2022-09-07T05:35:39.638Z,100445.03
2022-09-07T05:38:06.240Z,100446.97
2022-09-07T05:40:36.090Z,100447.31
2022-09-07T05:43:05.094Z,100453.38
2022-09-07T05:45:31.929Z,100442.44
2022-09-07T05:47:58.502Z,100442.19
2022-09-07T05:50:25.044Z,100444.19
2022-09-07T05:52:51.598Z,100457.72
2022-09-07T05:55:30.038Z,100461.53
2022-09-07T05:57:57.387Z,100457.88
2022-09-07T06:00:24.580Z,100461.28
2022-09-07T06:02:51.324Z,100444.00
2022-09-07T06:05:18.252Z,100454.88
2022-09-07T06:07:48.096Z,100444.53
2022-09-07T06:13:02.379Z,100437.25
2022-09-07T06:15:28.959Z,100429.84
2022-09-07T06:17:56.108Z,100419.25
2022-09-07T06:20:22.681Z,100416.88
2022-09-07T06:22:50.139Z,100394.97
2022-09-07T06:25:16.760Z,100382.00
2022-09-07T06:27:43.502Z,100379.97
2022-09-07T06:30:10.483Z,100366.38
2022-09-07T06:35:08.561Z,100322.06
2022-09-07T06:37:35.398Z,100287.47
2022-09-07T06:40:02.311Z,100270.72
2022-09-07T06:42:28.858Z,100262.59
2022-09-07T06:44:57.610Z,100254.56
2022-09-07T06:47:24.278Z,100249.78
2022-09-07T06:49:51.119Z,100250.19
2022-09-07T06:52:17.675Z,100267.50
2022-09-07T06:55:00.144Z,100258.09
2022-09-07T06:57:27.721Z,100264.31
2022-09-07T06:59:54.315Z,100292.03
2022-09-07T07:02:20.933Z,100295.38
2022-09-07T07:04:49.968Z,100304.44
2022-09-07T07:07:16.562Z,100316.03
2022-09-07T07:09:43.158Z,100325.31
2022-09-07T07:12:11.051Z,100327.03
2022-09-07T07:14:41.071Z,100322.53
2022-09-07T07:17:10.732Z,100322.91
2022-09-07T07:19:37.489Z,100336.06
2022-09-07T07:22:29.427Z,100352.81
2022-09-07T07:24:51.818Z,100360.84
2022-09-07T07:27:18.370Z,100362.38
2022-09-07T07:29:46.383Z,100363.78
2022-09-07T07:32:13.308Z,100373.81
2022-09-07T07:34:39.946Z,100371.78
2022-09-07T07:37:06.675Z,100371.16
2022-09-07T07:42:21.258Z,100371.31
2022-09-07T07:44:48.697Z,100366.25
2022-09-07T07:47:15.366Z,100373.75
2022-09-07T07:49:41.874Z,100378.09
2022-09-07T07:54:55.565Z,100376.25
2022-09-07T07:57:22.058Z,100376.81
2022-09-07T07:59:49.460Z,100385.88
2022-09-07T08:02:16.951Z,100390.56
2022-09-07T08:04:43.821Z,100398.31
2022-09-07T08:07:11.952Z,100414.84
2022-09-07T08:09:43.382Z,100421.13
2022-09-07T08:12:12.958Z,100423.03
2022-09-07T08:14:41.137Z,100423.50
2022-09-07T08:17:09.794Z,100426.81
2022-09-07T08:19:36.712Z,100430.78
2022-09-07T08:22:04.092Z,100440.97
2022-09-07T08:24:31.892Z,100437.94
2022-09-07T08:26:58.538Z,100435.41
2022-09-07T08:29:25.073Z,100435.50
2022-09-07T08:31:51.702Z,100430.91
2022-09-07T08:34:18.923Z,100436.25
2022-09-07T08:36:48.032Z,100442.28
2022-09-07T08:39:14.594Z,100439.31
2022-09-07T08:42:13.537Z,100443.19
2022-09-07T08:44:54.995Z,100446.28
2022-09-07T08:47:58.361Z,100452.84
2022-09-07T08:50:35.188Z,100449.66
2022-09-07T08:53:08.432Z,100447.72
2022-09-07T08:55:49.491Z,100451.00
2022-09-07T08:58:50.587Z,100446.38
2022-09-07T09:01:35.979Z,100434.94
2022-09-07T09:04:19.370Z,100442.03
2022-09-07T09:06:56.941Z,100434.44
2022-09-07T09:09:29.183Z,100428.69
2022-09-07T09:12:13.167Z,100423.56
2022-09-07T09:14:54.673Z,100420.91
2022-09-07T09:17:27.315Z,100418.03
2022-09-07T09:20:03.926Z,100414.22
2022-09-07T09:22:31.319Z,100423.94
2022-09-07T09:25:20.545Z,100419.22
2022-09-07T09:27:48.975Z,100421.63
2022-09-07T09:30:22.298Z,100413.16
2022-09-07T09:32:52.708Z,100411.69
2022-09-07T09:35:34.697Z,100412.09
2022-09-07T09:38:03.535Z,100409.97
2022-09-07T09:40:33.609Z,100409.78
2022-09-07T09:43:01.974Z,100409.47
2022-09-07T09:48:33.682Z,100424.88
2022-09-07T09:53:54.696Z,100411.63
2022-09-07T09:56:22.785Z,100412.72
2022-09-07T09:59:05.236Z,100412.00
2022-09-07T10:01:33.584Z,100420.38
2022-09-07T10:04:33.857Z,100415.84
2022-09-07T10:07:14.847Z,100428.63
2022-09-07T10:09:48.753Z,100423.72
2022-09-07T10:12:28.834Z,100423.69
2022-09-07T10:14:57.105Z,100419.81
2022-09-07T10:17:31.227Z,100417.25
2022-09-07T10:20:03.976Z,100415.38
2022-09-07T10:22:35.689Z,100415.09
2022-09-07T10:25:05.098Z,100423.81
2022-09-07T10:27:33.302Z,100424.84
2022-09-07T10:30:01.142Z,100426.34
2022-09-07T10:32:57.416Z,100425.41
2022-09-07T10:35:28.799Z,100424.38
2022-09-07T10:38:16.637Z,100428.09
2022-09-07T10:40:47.595Z,100419.97
2022-09-07T10:43:45.716Z,100421.59
2022-09-07T10:49:28.025Z,100417.06
2022-09-07T10:52:22.300Z,100412.13
2022-09-07T10:55:15.756Z,100402.97
2022-09-07T10:57:45.648Z,100394.19
2022-09-07T11:00:18.890Z,100407.00
2022-09-07T11:06:16.551Z,100401.41
2022-09-07T11:09:22.118Z,100405.16
2022-09-07T11:12:02.983Z,100407.97
2022-09-07T11:14:45.401Z,100404.56
2022-09-07T11:17:27.015Z,100391.47
2022-09-07T11:20:17.403Z,100397.00
2022-09-07T11:22:52.008Z,100394.94
2022-09-07T11:25:32.640Z,100391.19
2022-09-07T11:28:08.216Z,100396.13
2022-09-07T11:30:40.530Z,100397.09
2022-09-07T11:33:19.124Z,100392.75
2022-09-07T11:35:53.094Z,100383.34
2022-09-07T11:38:25.819Z,100387.56
2022-09-07T11:41:19.688Z,100384.16
2022-09-07T11:43:51.060Z,100388.09
2022-09-07T11:46:26.628Z,100378.47
2022-09-07T11:48:55.887Z,100378.72
2022-09-07T11:51:43.361Z,100381.22
2022-09-07T11:54:33.814Z,100370.75
2022-09-07T11:57:08.180Z,100368.47
2022-09-07T11:59:45.138Z,100370.09
2022-09-07T12:02:58.435Z,100361.34
2022-09-07T12:05:53.454Z,100365.44
2022-09-07T12:08:38.392Z,100367.25
2022-09-07T12:11:11.223Z,100364.44
2022-09-07T12:13:55.900Z,100361.31
2022-09-07T12:16:40.939Z,100357.34
2022-09-07T12:19:20.447Z,100367.94
2022-09-07T12:21:53.540Z,100365.44
2022-09-07T12:24:48.455Z,100362.75
2022-09-07T12:27:21.296Z,100361.47
2022-09-07T12:29:51.122Z,100355.31
2022-09-07T12:32:54.978Z,100364.16
2022-09-07T12:35:31.029Z,100363.69
2022-09-07T12:37:58.802Z,100358.16
2022-09-07T12:40:33.147Z,100358.00
2022-09-07T12:43:14.812Z,100359.91
2022-09-07T12:45:41.927Z,100364.31
2022-09-07T12:48:17.654Z,100350.91
2022-09-07T12:51:00.305Z,100353.75
2022-09-07T12:53:58.069Z,100357.00
2022-09-07T12:56:30.613Z,100347.72
2022-09-07T12:59:31.372Z,100342.47
2022-09-07T13:02:10.313Z,100332.97
2022-09-07T13:05:02.671Z,100337.09
2022-09-07T13:07:41.130Z,100338.31
2022-09-07T13:10:28.040Z,100335.81
2022-09-07T13:13:01.308Z,100337.41
2022-09-07T13:15:48.857Z,100338.00
2022-09-07T13:18:28.172Z,100337.59
2022-09-07T13:21:32.054Z,100331.34
2022-09-07T13:27:03.757Z,100333.75
2022-09-07T13:29:55.224Z,100334.66
2022-09-07T13:35:22.200Z,100333.84
2022-09-07T13:37:57.626Z,100339.25
2022-09-07T13:40:27.797Z,100333.69
2022-09-07T13:42:56.807Z,100343.22
2022-09-07T13:45:57.667Z,100335.78
2022-09-07T13:48:48.946Z,100333.63
2022-09-07T13:51:55.573Z,100328.59
2022-09-07T13:54:50.779Z,100325.03
2022-09-07T13:57:49.837Z,100319.50
2022-09-07T14:00:17.337Z,100319.75
2022-09-07T14:02:44.659Z,100324.47
2022-09-07T14:05:18.418Z,100321.28
2022-09-07T14:07:45.982Z,100316.50
2022-09-07T14:10:25.057Z,100325.28
2022-09-07T14:13:06.738Z,100313.88
2022-09-07T14:15:45.804Z,100315.06
2022-09-07T14:18:15.131Z,100318.66
2022-09-07T14:20:51.329Z,100319.59
2022-09-07T14:23:28.006Z,100309.03
2022-09-07T14:26:17.278Z,100306.72
2022-09-07T14:28:45.975Z,100310.00
2022-09-07T14:31:15.807Z,100304.13
2022-09-07T14:34:01.453Z,100302.00
2022-09-07T14:36:46.743Z,100291.13
2022-09-07T14:39:16.431Z,100294.59
2022-09-07T14:41:44.146Z,100297.13
2022-09-07T14:44:29.188Z,100282.78
2022-09-07T14:46:57.707Z,100285.00
2022-09-07T14:49:24.643Z,100277.44
2022-09-07T14:51:54.015Z,100275.25
2022-09-07T14:54:30.784Z,100273.03
2022-09-07T14:57:03.385Z,100271.63
2022-09-07T14:59:43.267Z,100279.22
2022-09-07T15:02:36.623Z,100276.28
2022-09-07T15:05:15.077Z,100275.97
2022-09-07T15:07:46.965Z,100280.78
2022-09-07T15:10:23.456Z,100273.81
2022-09-07T15:12:59.412Z,100275.28
2022-09-07T15:15:35.017Z,100275.34
2022-09-07T15:18:23.088Z,100269.78
2022-09-07T15:20:50.576Z,100269.44
2022-09-07T15:23:19.576Z,100269.53
2022-09-07T15:25:51.958Z,100278.59
2022-09-07T15:34:12.004Z,100260.25
2022-09-07T15:37:00.258Z,100264.66
2022-09-07T15:39:29.517Z,100260.06
2022-09-07T15:41:57.205Z,100257.16
2022-09-07T15:44:26.493Z,100254.94
2022-09-07T15:49:46.073Z,100263.94
2022-09-07T15:52:16.430Z,100263.97
2022-09-07T15:54:43.493Z,100262.88
2022-09-07T15:59:57.346Z,100258.78
2022-09-07T16:05:10.865Z,100264.09
2022-09-07T16:10:24.807Z,100262.91
2022-09-07T16:15:46.125Z,100249.91
2022-09-07T16:18:16.445Z,100251.81
2022-09-07T16:20:44.033Z,100253.03
2022-09-07T16:23:13.683Z,100244.16
2022-09-07T16:25:43.036Z,100252.41
2022-09-07T16:28:09.879Z,100244.03
2022-09-07T16:30:39.998Z,100239.88
2022-09-07T16:33:06.661Z,100248.31
2022-09-07T16:35:33.528Z,100245.78
2022-09-07T16:40:46.994Z,100247.06
2022-09-07T16:43:13.528Z,100250.94
2022-09-07T16:48:27.750Z,100257.06
2022-09-07T16:51:01.150Z,100256.41
2022-09-07T16:53:31.004Z,100261.19
2022-09-07T16:56:24.668Z,100249.91
2022-09-07T16:58:54.725Z,100257.50
2022-09-07T17:01:24.395Z,100264.25
2022-09-07T17:03:52.215Z,100257.97
2022-09-07T17:06:21.050Z,100265.66
2022-09-07T17:08:47.845Z,100266.94
2022-09-07T17:11:17.773Z,100259.84
2022-09-07T17:13:45.179Z,100263.75
2022-09-07T17:16:13.415Z,100260.19
2022-09-07T17:21:36.206Z,100270.06
2022-09-07T17:24:05.113Z,100266.03
2022-09-07T17:26:32.553Z,100263.34
2022-09-07T17:29:01.056Z,100262.63
2022-09-07T17:34:20.194Z,100260.34
2022-09-07T17:36:47.315Z,100261.50
2022-09-07T17:39:16.199Z,100262.44
2022-09-07T17:41:44.738Z,100263.72
2022-09-07T17:44:11.596Z,100267.59
2022-09-07T17:46:38.412Z,100272.78
2022-09-07T17:49:07.050Z,100276.84
2022-09-07T17:51:33.647Z,100273.09
2022-09-07T17:54:09.675Z,100282.13
2022-09-07T17:56:37.300Z,100272.78
2022-09-07T18:01:50.815Z,100274.13
2022-09-07T18:04:17.584Z,100279.47
2022-09-07T18:06:44.139Z,100289.47
2022-09-07T18:09:11.219Z,100289.91
2022-09-07T18:11:46.373Z,100285.63
2022-09-07T18:14:14.450Z,100293.63
2022-09-07T18:16:42.437Z,100294.38
2022-09-07T18:19:10.969Z,100296.91
2022-09-07T18:21:38.282Z,100284.53
2022-09-07T18:24:16.500Z,100287.84
2022-09-07T18:26:44.759Z,100289.47
2022-09-07T18:29:28.099Z,100285.06
2022-09-07T18:31:56.687Z,100285.69
2022-09-07T18:34:23.314Z,100286.75
2022-09-07T18:36:50.109Z,100289.50
2022-09-07T18:39:17.086Z,100287.63
2022-09-07T18:41:43.988Z,100290.94
2022-09-07T18:46:57.197Z,100302.97
2022-09-07T18:49:24.943Z,100301.31
2022-09-07T18:54:41.324Z,100293.09
2022-09-07T18:57:08.186Z,100291.69
2022-09-07T18:59:35.363Z,100292.97
2022-09-07T19:02:04.780Z,100290.78
2022-09-07T19:07:27.350Z,100297.81
2022-09-07T19:09:56.377Z,100295.09
2022-09-07T19:12:24.159Z,100298.09
2022-09-07T19:14:50.921Z,100296.06
2022-09-07T19:17:17.821Z,100288.63
2022-09-07T19:19:44.460Z,100285.59
2022-09-07T19:22:10.997Z,100285.78
2022-09-07T19:24:38.187Z,100282.72
2022-09-07T19:27:07.452Z,100290.81
2022-09-07T19:29:34.071Z,100299.09
2022-09-07T19:32:11.898Z,100311.66
2022-09-07T19:34:43.316Z,100305.41
2022-09-07T19:37:12.042Z,100325.06
2022-09-07T19:39:38.799Z,100315.03
2022-09-07T19:42:06.234Z,100315.09
2022-09-07T19:44:33.233Z,100301.47
2022-09-07T19:47:00.628Z,100310.50
2022-09-07T19:49:27.862Z,100302.81
2022-09-07T19:51:54.791Z,100296.28
2022-09-07T19:54:21.511Z,100299.81
2022-09-07T19:56:48.596Z,100292.56
2022-09-07T19:59:15.230Z,100289.88
2022-09-07T20:01:46.201Z,100286.66
2022-09-07T20:04:20.419Z,100279.84
2022-09-07T20:06:49.824Z,100286.28
2022-09-07T20:09:18.502Z,100284.28
2022-09-07T20:11:47.361Z,100276.06
2022-09-07T20:14:17.460Z,100286.13
2022-09-07T20:16:44.163Z,100272.38
2022-09-07T20:19:12.209Z,100270.44
2022-09-07T20:21:38.827Z,100262.97
2022-09-07T20:24:05.803Z,100255.91
2022-09-07T20:26:32.683Z,100261.00
2022-09-07T20:29:16.799Z,100261.69
2022-09-07T20:31:47.559Z,100256.81
2022-09-07T20:34:14.407Z,100260.13
2022-09-07T20:36:41.551Z,100257.25
2022-09-07T20:39:08.122Z,100251.00
2022-09-07T20:41:35.668Z,100246.13
2022-09-07T20:44:04.102Z,100238.72
2022-09-07T20:46:31.276Z,100239.91
2022-09-07T20:48:58.195Z,100245.84
2022-09-07T20:51:24.900Z,100240.81
2022-09-07T20:53:51.951Z,100238.00
2022-09-07T20:56:23.583Z,100246.72
2022-09-07T20:58:55.301Z,100244.34
2022-09-07T21:01:22.394Z,100241.41
2022-09-07T21:03:51.338Z,100245.13
2022-09-07T21:06:20.288Z,100241.91
2022-09-07T21:08:47.721Z,100244.81
2022-09-07T21:11:20.563Z,100251.31
2022-09-07T21:13:47.671Z,100248.66
2022-09-07T21:16:16.223Z,100259.31
2022-09-07T21:18:44.381Z,100258.63
2022-09-07T21:21:20.412Z,100258.59
2022-09-07T21:23:47.821Z,100258.75
2022-09-07T21:26:14.630Z,100259.47
2022-09-07T21:28:41.139Z,100267.50
2022-09-07T21:31:08.869Z,100272.53
2022-09-07T21:33:37.237Z,100277.19
2022-09-07T21:36:04.749Z,100273.66
2022-09-07T21:38:31.347Z,100269.31
2022-09-07T21:40:57.858Z,100262.53
2022-09-07T21:43:24.366Z,100263.09
2022-09-07T21:45:51.164Z,100253.81
2022-09-07T21:48:17.646Z,100260.03
2022-09-07T21:50:46.695Z,100250.06
2022-09-07T21:53:13.239Z,100251.50
2022-09-07T21:55:39.975Z,100248.88
2022-09-07T21:58:06.509Z,100252.75
2022-09-07T22:00:33.540Z,100249.03
2022-09-07T22:03:00.787Z,100250.44
2022-09-07T22:05:27.443Z,100244.63
2022-09-07T22:07:53.952Z,100244.06
2022-09-07T22:10:20.855Z,100235.41
2022-09-07T22:12:47.342Z,100237.75
2022-09-07T22:15:14.277Z,100232.13
2022-09-07T22:17:45.671Z,100229.16
2022-09-07T22:20:12.802Z,100233.44
2022-09-07T22:22:39.340Z,100225.09
2022-09-07T22:25:06.401Z,100225.69
2022-09-07T22:27:32.911Z,100220.09
2022-09-07T22:29:59.423Z,100215.63
2022-09-07T22:32:25.953Z,100219.28
2022-09-07T22:34:53.087Z,100214.91
2022-09-07T22:37:19.601Z,100211.44
2022-09-07T22:39:46.140Z,100210.94
2022-09-07T22:42:12.666Z,100203.97
2022-09-07T22:44:39.572Z,100202.38
2022-09-07T22:47:06.103Z,100195.84
2022-09-07T22:49:33.177Z,100196.97
2022-09-07T22:51:59.706Z,100198.06
2022-09-07T22:54:26.316Z,100199.97
2022-09-07T22:56:52.932Z,100191.28
2022-09-07T22:59:19.451Z,100194.75
2022-09-07T23:01:46.882Z,100196.00
2022-09-07T23:04:13.639Z,100180.09
2022-09-07T23:06:42.336Z,100177.06
2022-09-07T23:09:12.695Z,100172.38
2022-09-07T23:11:39.687Z,100174.59
2022-09-07T23:14:12.275Z,100178.56
2022-09-07T23:16:39.291Z,100168.97
2022-09-07T23:19:05.951Z,100162.19
2022-09-07T23:21:32.748Z,100165.03
2022-09-07T23:23:59.947Z,100156.38
2022-09-07T23:26:29.528Z,100157.13
2022-09-07T23:28:59.041Z,100156.41
2022-09-07T23:31:26.924Z,100165.75
2022-09-07T23:33:53.952Z,100160.69
2022-09-07T23:36:20.488Z,100160.16
2022-09-07T23:38:47.299Z,100158.56
2022-09-07T23:41:14.748Z,100159.88
2022-09-07T23:43:41.637Z,100163.34
2022-09-07T23:46:09.712Z,100157.88
2022-09-07T23:48:36.347Z,100153.34
2022-09-07T23:51:02.926Z,100158.09
2022-09-07T23:53:29.894Z,100157.56
2022-09-07T23:55:56.806Z,100140.75
2022-09-07T23:58:23.739Z,100142.94
